Kezdőlap
METAR-TAF:

METAR-TAF

Repülőterek :

Clines Corners, Új-Mexikó, Amerikai Egyesült Államok

földrajzi szélesség: 35-00N, földrajzi hosszúság: 105-40W, magasság: 2160 m

Jelenlegi meteorológiai megfigyelések

A jelentés 58 perccel ezelõtt készült, 13:53 UTC
Nyugati szél 10 kt
Hőmérséklet 19°C
Páratartalom 26%
Légköri nyomás 1016 hPa
Látótávolság: 16.1 km
Derült ég

METAR: KCQC 181353Z AUTO 26010KT 10SM CLR 19/M01 A3000 RMK AO2 SLP048 T01891011 $

Idő: 08:51 (14:51 UTC)


TAF: hiányzik

Meteorológiai megfigyelések és előrejelzések több, mint 4000 repülőtéren (METAR és TAF jelentéseket).

A térképen piros és sárga pontok jelzik az elérhető meteorológiai állomásokat.

Mozgassa az egeret a pont fölött, hogy megjelenjen az állomás neve.

Azután kattintson az időjárási megfigyelések és előrejelzések megtekintéséhez.

A térkép megváltoztatása: kattintson a fekete keresztel jelölt zöld gombra ráközelítéshez, a vonallal jelölt zöld gombra távolításhoz, vagy a zöld nyilakra a szomszédos térképek eléréséhez.


METAR-TAF: